createdAt,value
2022-12-15T00:00:33.842Z,-3.68
2022-12-15T00:03:26.552Z,-3.73
2022-12-15T00:06:12.439Z,-5.04
2022-12-15T00:08:59.615Z,-3.78
2022-12-15T00:11:45.261Z,-4.22
2022-12-15T00:14:31.154Z,-3.77
2022-12-15T00:17:17.052Z,-3.83
2022-12-15T00:20:04.068Z,-3.93
2022-12-15T00:22:50.175Z,-4.03
2022-12-15T00:25:35.981Z,-4.04
2022-12-15T00:28:22.099Z,-4.10
2022-12-15T00:31:08.164Z,-4.13
2022-12-15T00:33:54.174Z,-4.17
2022-12-15T00:36:41.586Z,-4.20
2022-12-15T00:39:09.943Z,-4.22
2022-12-15T00:41:38.226Z,-4.20
2022-12-15T00:44:06.783Z,-4.16
2022-12-15T00:47:01.196Z,-4.19
2022-12-15T00:49:50.615Z,-4.26
2022-12-15T00:52:37.978Z,-4.30
2022-12-15T00:55:24.848Z,-4.31
2022-12-15T00:58:12.657Z,-4.58
2022-12-15T01:00:58.238Z,-4.47
2022-12-15T01:03:44.876Z,-4.58
2022-12-15T01:06:34.666Z,-4.65
2022-12-15T01:09:24.546Z,-4.76
2022-12-15T01:12:11.072Z,-5.04
2022-12-15T01:14:57.703Z,-5.55
2022-12-15T01:17:43.707Z,-5.01
2022-12-15T01:20:18.237Z,-5.07
2022-12-15T01:22:47.642Z,-5.57
2022-12-15T01:25:20.858Z,-5.41
2022-12-15T01:27:50.667Z,-5.20
2022-12-15T01:30:24.597Z,-5.15
2022-12-15T01:32:53.703Z,-5.35
2022-12-15T01:35:23.289Z,-5.32
2022-12-15T01:37:51.729Z,-5.95
2022-12-15T01:40:41.152Z,-5.44
2022-12-15T01:43:14.744Z,-5.48
2022-12-15T01:46:02.089Z,-5.53
2022-12-15T01:48:47.562Z,-5.50
2022-12-15T01:51:24.957Z,-5.83
2022-12-15T01:54:03.591Z,-5.54
2022-12-15T01:56:38.315Z,-5.81
2022-12-15T01:59:10.627Z,-5.90
2022-12-15T02:01:39.743Z,-5.85
2022-12-15T02:04:12.461Z,-5.92
2022-12-15T02:06:40.827Z,-6.17
2022-12-15T02:09:10.015Z,-6.00
2022-12-15T02:11:58.820Z,-6.26
2022-12-15T02:14:46.728Z,-5.97
2022-12-15T02:17:31.858Z,-6.15
2022-12-15T02:20:41.814Z,-5.74
2022-12-15T02:23:58.713Z,-5.73
2022-12-15T02:27:25.378Z,-5.57
2022-12-15T02:30:47.070Z,-5.42
2022-12-15T02:33:27.774Z,-5.42
2022-12-15T02:36:03.353Z,-5.54
2022-12-15T02:38:36.439Z,-5.54
2022-12-15T02:41:07.512Z,-5.84
2022-12-15T02:43:39.949Z,-5.62
2022-12-15T02:46:23.026Z,-6.37
2022-12-15T02:49:06.502Z,-5.71
2022-12-15T02:51:54.892Z,-6.10
2022-12-15T02:54:51.178Z,-6.14
2022-12-15T02:57:29.497Z,-5.53
2022-12-15T03:00:02.124Z,-5.50
2022-12-15T03:02:35.564Z,-5.52
2022-12-15T03:05:06.895Z,-6.65
2022-12-15T03:07:35.390Z,-5.82
2022-12-15T03:10:07.303Z,-6.65
2022-12-15T03:12:35.709Z,-5.67
2022-12-15T03:15:04.372Z,-6.52
2022-12-15T03:17:33.037Z,-5.65
2022-12-15T03:20:01.751Z,-5.67
2022-12-15T03:22:31.736Z,-5.67
2022-12-15T03:25:00.036Z,-6.57
2022-12-15T03:27:28.676Z,-5.58
2022-12-15T03:29:57.565Z,-5.52
2022-12-15T03:32:25.825Z,-5.46
2022-12-15T03:34:54.169Z,-5.39
2022-12-15T03:37:22.416Z,-5.70
2022-12-15T03:39:52.102Z,-5.46
2022-12-15T03:42:40.393Z,-5.44
2022-12-15T03:45:09.986Z,-5.54
2022-12-15T03:47:43.096Z,-5.76
2022-12-15T03:50:13.739Z,-5.59
2022-12-15T03:52:42.080Z,-5.32
2022-12-15T03:55:13.092Z,-5.32
2022-12-15T03:57:42.197Z,-5.42
2022-12-15T04:00:15.049Z,-5.42
2022-12-15T04:02:43.860Z,-5.45
2022-12-15T04:05:18.204Z,-5.41
2022-12-15T04:07:46.581Z,-5.44
2022-12-15T04:10:16.483Z,-5.56
2022-12-15T04:12:45.155Z,-5.51
2022-12-15T04:15:14.008Z,-5.42
2022-12-15T04:17:43.052Z,-5.39
2022-12-15T04:20:11.816Z,-5.36
2022-12-15T04:22:43.514Z,-5.36
2022-12-15T04:25:33.845Z,-5.28
2022-12-15T04:28:19.902Z,-5.21
2022-12-15T04:31:12.992Z,-5.12
2022-12-15T04:34:03.473Z,-5.00
2022-12-15T04:36:50.385Z,-4.95
2022-12-15T04:39:36.350Z,-5.23
2022-12-15T04:42:24.083Z,-4.95
2022-12-15T04:45:18.632Z,-5.11
2022-12-15T04:48:06.910Z,-5.02
2022-12-15T04:50:53.022Z,-4.78
2022-12-15T04:53:40.432Z,-4.71
2022-12-15T04:56:30.098Z,-5.02
2022-12-15T04:59:18.213Z,-4.77
2022-12-15T05:02:04.801Z,-4.53
2022-12-15T05:04:50.874Z,-4.57
2022-12-15T05:07:36.893Z,-4.74
2022-12-15T05:10:24.961Z,-4.80
2022-12-15T05:13:10.722Z,-4.49
2022-12-15T05:15:57.754Z,-4.47
2022-12-15T05:18:43.893Z,-4.59
2022-12-15T05:21:29.851Z,-4.38
2022-12-15T05:24:15.679Z,-4.32
2022-12-15T05:27:01.485Z,-4.23
2022-12-15T05:29:47.332Z,-4.19
2022-12-15T05:32:17.284Z,-4.36
2022-12-15T05:34:45.850Z,-4.05
2022-12-15T05:37:14.179Z,-4.06
2022-12-15T05:39:43.211Z,-4.08
2022-12-15T05:42:13.936Z,-4.04
2022-12-15T05:44:43.310Z,-3.99
2022-12-15T05:47:13.067Z,-3.98
2022-12-15T05:49:42.825Z,-3.93
2022-12-15T05:52:11.145Z,-3.92
2022-12-15T05:54:39.471Z,-3.88
2022-12-15T05:57:07.950Z,-4.30
2022-12-15T05:59:36.310Z,-3.97
2022-12-15T06:02:05.182Z,-4.09
2022-12-15T06:04:33.636Z,-3.76
2022-12-15T06:07:03.542Z,-3.83
2022-12-15T06:09:31.926Z,-3.66
2022-12-15T06:12:00.576Z,-3.59
2022-12-15T06:14:29.113Z,-3.83
2022-12-15T06:16:57.402Z,-4.36
2022-12-15T06:19:25.826Z,-3.92
2022-12-15T06:21:54.275Z,-3.47
2022-12-15T06:24:24.727Z,-3.47
2022-12-15T06:26:53.488Z,-3.59
2022-12-15T06:29:22.192Z,-3.49
2022-12-15T06:31:50.545Z,-3.54
2022-12-15T06:34:53.945Z,-3.58
2022-12-15T06:37:22.622Z,-3.64
2022-12-15T06:39:52.245Z,-4.21
2022-12-15T06:42:21.871Z,-3.62
2022-12-15T06:44:50.163Z,-3.62
2022-12-15T06:47:19.229Z,-5.02
2022-12-15T06:49:50.130Z,-4.46
2022-12-15T06:52:18.419Z,-3.73
2022-12-15T06:54:46.700Z,-3.83
2022-12-15T06:57:16.948Z,-3.90
2022-12-15T06:59:45.516Z,-3.66
2022-12-15T07:02:21.110Z,-3.62
2022-12-15T07:04:52.311Z,-3.70
2022-12-15T07:07:20.953Z,-3.82
2022-12-15T07:09:49.760Z,-3.76
2022-12-15T07:12:20.839Z,-4.54
2022-12-15T07:14:53.380Z,-4.56
2022-12-15T07:17:22.123Z,-3.79
2022-12-15T07:19:50.439Z,-3.86
2022-12-15T07:22:20.718Z,-3.81
2022-12-15T07:24:49.090Z,-3.83
2022-12-15T07:27:18.165Z,-4.02
2022-12-15T07:29:47.846Z,-4.17
2022-12-15T07:32:16.881Z,-4.28
2022-12-15T07:34:46.191Z,-4.12
2022-12-15T07:37:17.321Z,-4.04
2022-12-15T07:39:46.284Z,-4.08
2022-12-15T07:42:14.687Z,-4.66
2022-12-15T07:44:42.992Z,-4.14
2022-12-15T07:47:12.715Z,-4.11
2022-12-15T07:49:41.269Z,-4.73
2022-12-15T07:52:09.950Z,-4.05
2022-12-15T07:54:38.334Z,-4.12
2022-12-15T07:57:07.672Z,-4.07
2022-12-15T07:59:36.353Z,-4.01
2022-12-15T08:02:05.751Z,-3.84
2022-12-15T08:04:35.768Z,-3.77
2022-12-15T08:07:04.350Z,-3.59
2022-12-15T08:09:32.801Z,-3.61
2022-12-15T08:12:02.815Z,-3.61
2022-12-15T08:14:32.319Z,-3.59
2022-12-15T08:17:01.132Z,-3.58
2022-12-15T08:19:30.747Z,-3.63
2022-12-15T08:22:00.485Z,-3.85
2022-12-15T08:24:28.845Z,-3.58
2022-12-15T08:26:57.567Z,-3.37
2022-12-15T08:29:50.666Z,-3.38
2022-12-15T08:32:14.664Z,-3.39
2022-12-15T08:34:43.644Z,-3.34
2022-12-15T08:37:13.433Z,-4.44
2022-12-15T08:39:42.555Z,-3.32
2022-12-15T08:42:11.157Z,-3.42
2022-12-15T08:44:39.876Z,-3.49
2022-12-15T08:47:08.890Z,-3.45
2022-12-15T08:49:37.552Z,-3.32
2022-12-15T08:52:06.167Z,-3.22
2022-12-15T08:54:36.193Z,-3.35
2022-12-15T08:57:04.759Z,-3.27
2022-12-15T08:59:33.079Z,-3.31
2022-12-15T09:02:02.091Z,-3.42
2022-12-15T09:04:30.690Z,-3.38
2022-12-15T09:07:00.714Z,-3.34
2022-12-15T09:09:29.350Z,-3.27
2022-12-15T09:11:59.055Z,-3.31
2022-12-15T09:14:29.593Z,-3.41
2022-12-15T09:16:58.567Z,-3.54
2022-12-15T09:19:27.891Z,-3.66
2022-12-15T09:21:56.500Z,-3.84
2022-12-15T09:24:34.369Z,-3.98
2022-12-15T09:27:04.866Z,-4.92
2022-12-15T09:29:33.830Z,-4.87
2022-12-15T09:32:02.173Z,-4.87
2022-12-15T09:34:30.775Z,-4.39
2022-12-15T09:36:59.107Z,-4.41
2022-12-15T09:39:27.661Z,-4.41
2022-12-15T09:42:01.392Z,-4.44
2022-12-15T09:44:35.758Z,-4.48
2022-12-15T09:47:19.664Z,-4.50
2022-12-15T09:49:56.557Z,-4.64
2022-12-15T09:52:30.115Z,-5.04
2022-12-15T09:54:59.701Z,-4.49
2022-12-15T09:57:38.557Z,-5.61
2022-12-15T10:00:22.457Z,-4.52
2022-12-15T10:03:34.264Z,-4.36
2022-12-15T10:06:20.208Z,-4.34
2022-12-15T10:08:57.226Z,-4.33
2022-12-15T10:11:50.618Z,-4.44
2022-12-15T10:14:32.072Z,-4.29
2022-12-15T10:17:15.210Z,-4.90
2022-12-15T10:19:50.885Z,-4.31
2022-12-15T10:22:25.262Z,-4.28
2022-12-15T10:25:11.440Z,-4.22
2022-12-15T10:28:17.218Z,-4.18
2022-12-15T10:30:59.416Z,-4.13
2022-12-15T10:33:36.573Z,-4.10
2022-12-15T10:36:11.166Z,-4.04
2022-12-15T10:38:45.367Z,-4.07
2022-12-15T10:41:17.529Z,-4.04
2022-12-15T10:43:48.307Z,-4.37
2022-12-15T10:46:23.006Z,-3.98
2022-12-15T10:48:57.445Z,-3.99
2022-12-15T10:51:31.732Z,-4.09
2022-12-15T10:54:14.478Z,-4.05
2022-12-15T10:56:51.804Z,-3.91
2022-12-15T10:59:26.863Z,-4.83
2022-12-15T11:01:56.008Z,-3.86
2022-12-15T11:04:31.757Z,-3.86
2022-12-15T11:07:02.140Z,-4.11
2022-12-15T11:09:35.915Z,-3.92
2022-12-15T11:12:36.725Z,-4.28
2022-12-15T11:15:44.281Z,-3.80
2022-12-15T11:18:32.572Z,-3.74
2022-12-15T11:21:08.897Z,-3.66
2022-12-15T11:24:04.717Z,-3.66
2022-12-15T11:26:48.906Z,-4.12
2022-12-15T11:29:34.824Z,-3.59
2022-12-15T11:32:07.711Z,-3.61
2022-12-15T11:34:40.687Z,-3.62
2022-12-15T11:37:49.257Z,-3.59
2022-12-15T11:40:40.705Z,-3.75
2022-12-15T11:43:37.376Z,-3.53
2022-12-15T11:46:26.548Z,-3.48
2022-12-15T11:49:44.829Z,-4.04
2022-12-15T11:52:45.103Z,-3.53
2022-12-15T11:55:32.125Z,-3.70
2022-12-15T11:58:41.360Z,-3.46
2022-12-15T12:01:30.510Z,-3.39
2022-12-15T12:04:13.512Z,-3.35
2022-12-15T12:06:57.480Z,-3.34
2022-12-15T12:09:34.012Z,-3.58
2022-12-15T12:12:22.132Z,-3.29
2022-12-15T12:15:16.568Z,-3.28
2022-12-15T12:17:51.948Z,-3.26
2022-12-15T12:20:26.096Z,-3.83
2022-12-15T12:23:05.777Z,-3.27
2022-12-15T12:25:49.342Z,-3.25
2022-12-15T12:28:29.257Z,-3.62
2022-12-15T12:31:02.062Z,-3.60
2022-12-15T12:33:41.630Z,-3.19
2022-12-15T12:36:13.866Z,-3.36
2022-12-15T12:38:50.458Z,-3.36
2022-12-15T12:41:35.707Z,-3.24
2022-12-15T12:44:20.066Z,-3.13
2022-12-15T12:46:53.754Z,-3.30
2022-12-15T12:49:33.148Z,-3.53
2022-12-15T12:52:05.427Z,-3.01
2022-12-15T12:54:47.832Z,-2.99
2022-12-15T12:57:52.982Z,-3.42
2022-12-15T13:00:25.417Z,-3.42
2022-12-15T13:03:21.014Z,-2.99
2022-12-15T13:05:54.435Z,-3.01
2022-12-15T13:08:55.846Z,-3.01
2022-12-15T13:12:15.069Z,-3.15
2022-12-15T13:14:54.569Z,-3.32
2022-12-15T13:17:40.287Z,-3.13
2022-12-15T13:20:24.666Z,-3.12
2022-12-15T13:22:55.093Z,-3.00
2022-12-15T13:25:51.807Z,-3.29
2022-12-15T13:28:45.537Z,-3.34
2022-12-15T13:31:47.763Z,-3.08
2022-12-15T13:34:29.044Z,-4.04
2022-12-15T13:37:02.401Z,-3.19
2022-12-15T13:40:00.910Z,-3.35
2022-12-15T13:42:45.282Z,-3.26
2022-12-15T13:45:48.897Z,-3.54
2022-12-15T13:48:38.320Z,-3.28
2022-12-15T13:51:24.060Z,-3.33
2022-12-15T13:53:59.532Z,-3.34
2022-12-15T13:56:55.938Z,-3.38
2022-12-15T13:59:49.434Z,-3.37
2022-12-15T14:02:27.655Z,-3.39
2022-12-15T14:05:15.260Z,-3.76
2022-12-15T14:07:54.163Z,-3.73
2022-12-15T14:10:28.679Z,-3.51
2022-12-15T14:13:14.973Z,-3.86
2022-12-15T14:15:50.914Z,-3.51
2022-12-15T14:18:31.106Z,-3.55
2022-12-15T14:21:05.861Z,-3.63
2022-12-15T14:23:58.046Z,-3.67
2022-12-15T14:26:32.036Z,-3.71
2022-12-15T14:29:04.242Z,-3.74
2022-12-15T14:31:33.615Z,-3.80
2022-12-15T14:34:12.330Z,-3.86
2022-12-15T14:36:44.295Z,-4.08
2022-12-15T14:39:23.834Z,-4.42
2022-12-15T14:41:55.153Z,-4.00
2022-12-15T14:44:38.235Z,-4.05
2022-12-15T14:47:20.322Z,-4.92
2022-12-15T14:49:49.564Z,-4.18
2022-12-15T14:52:30.718Z,-4.23
2022-12-15T14:55:01.873Z,-4.28
2022-12-15T14:57:43.880Z,-4.32
2022-12-15T15:00:28.796Z,-4.41
2022-12-15T15:06:02.378Z,-4.40
2022-12-15T15:08:36.169Z,-4.46
2022-12-15T15:11:24.291Z,-4.50
2022-12-15T15:13:57.667Z,-4.54
2022-12-15T15:16:26.922Z,-4.58
2022-12-15T15:18:57.802Z,-5.42
2022-12-15T15:21:31.400Z,-4.60
2022-12-15T15:24:03.865Z,-4.64
2022-12-15T15:26:33.016Z,-5.22
2022-12-15T15:29:01.755Z,-5.12
2022-12-15T15:31:41.448Z,-5.32
2022-12-15T15:34:11.556Z,-4.70
2022-12-15T15:36:41.336Z,-4.75
2022-12-15T15:39:17.219Z,-5.14
2022-12-15T15:41:46.078Z,-4.76
2022-12-15T15:44:17.217Z,-4.80
2022-12-15T15:46:50.643Z,-5.02
2022-12-15T15:49:23.565Z,-4.77
2022-12-15T15:51:52.415Z,-4.81
2022-12-15T15:54:29.758Z,-4.80
2022-12-15T15:57:02.341Z,-4.84
2022-12-15T15:59:31.122Z,-4.87
2022-12-15T16:02:00.493Z,-4.93
2022-12-15T16:04:29.011Z,-5.38
2022-12-15T16:06:57.326Z,-5.01
2022-12-15T16:09:27.102Z,-5.02
2022-12-15T16:11:55.879Z,-5.06
2022-12-15T16:14:24.489Z,-5.06
2022-12-15T16:16:54.704Z,-5.08
2022-12-15T16:19:23.977Z,-5.32
2022-12-15T16:21:53.229Z,-5.09
2022-12-15T16:24:21.883Z,-5.39
2022-12-15T16:26:52.461Z,-5.28
2022-12-15T16:29:22.502Z,-5.14
2022-12-15T16:31:50.852Z,-5.08
2022-12-15T16:34:21.802Z,-5.07
2022-12-15T16:36:50.981Z,-5.12
2022-12-15T16:39:27.838Z,-5.15
2022-12-15T16:41:58.725Z,-5.16
2022-12-15T16:44:30.549Z,-5.15
2022-12-15T16:46:59.868Z,-5.14
2022-12-15T16:49:33.878Z,-5.17
2022-12-15T16:52:06.679Z,-5.21
2022-12-15T16:54:35.132Z,-5.23
2022-12-15T16:57:06.026Z,-5.29
2022-12-15T16:59:35.684Z,-5.30
2022-12-15T17:02:28.465Z,-5.32
2022-12-15T17:04:57.473Z,-5.34
2022-12-15T17:07:29.397Z,-5.36
2022-12-15T17:09:58.294Z,-5.38
2022-12-15T17:12:28.105Z,-5.39
2022-12-15T17:14:57.582Z,-5.43
2022-12-15T17:17:28.295Z,-5.46
2022-12-15T17:22:48.564Z,-5.50
2022-12-15T17:25:37.422Z,-5.54
2022-12-15T17:28:18.787Z,-6.16
2022-12-15T17:30:47.856Z,-5.59
2022-12-15T17:33:20.158Z,-5.54
2022-12-15T17:35:51.422Z,-5.57
2022-12-15T17:38:22.574Z,-5.59
2022-12-15T17:40:52.449Z,-5.76
2022-12-15T17:43:24.188Z,-5.61
2022-12-15T17:45:55.625Z,-5.79
2022-12-15T17:48:24.981Z,-5.61
2022-12-15T17:50:55.067Z,-6.07
2022-12-15T17:53:25.567Z,-5.83
2022-12-15T17:55:55.213Z,-5.70
2022-12-15T17:58:29.368Z,-5.89
2022-12-15T18:00:59.169Z,-5.77
2022-12-15T18:03:28.041Z,-6.11
2022-12-15T18:05:56.504Z,-5.74
2022-12-15T18:08:28.061Z,-5.78
2022-12-15T18:10:59.771Z,-5.87
2022-12-15T18:13:35.423Z,-5.90
2022-12-15T18:16:04.796Z,-5.90
2022-12-15T18:18:35.407Z,-5.88
2022-12-15T18:21:14.628Z,-5.97
2022-12-15T18:23:43.501Z,-5.90
2022-12-15T18:26:14.073Z,-5.88
2022-12-15T18:28:44.746Z,-5.88
2022-12-15T18:31:23.048Z,-5.86
2022-12-15T18:33:51.367Z,-5.92
2022-12-15T18:36:20.620Z,-6.68
2022-12-15T18:38:49.932Z,-6.59
2022-12-15T18:41:21.269Z,-6.36
2022-12-15T18:43:52.044Z,-6.06
2022-12-15T18:46:20.734Z,-6.30
2022-12-15T18:48:49.243Z,-6.06
2022-12-15T18:51:23.292Z,-7.09
2022-12-15T18:53:52.410Z,-6.09
2022-12-15T18:56:21.682Z,-6.12
2022-12-15T18:58:51.933Z,-6.15
2022-12-15T19:01:20.770Z,-6.40
2022-12-15T19:03:50.727Z,-6.18
2022-12-15T19:06:34.897Z,-6.22
2022-12-15T19:09:04.856Z,-6.75
2022-12-15T19:11:34.652Z,-6.64
2022-12-15T19:14:29.163Z,-6.52
2022-12-15T19:17:16.028Z,-7.06
2022-12-15T19:20:02.122Z,-6.35
2022-12-15T19:22:31.309Z,-6.32
2022-12-15T19:25:00.505Z,-6.33
2022-12-15T19:27:29.030Z,-6.32
2022-12-15T19:29:59.047Z,-6.48
2022-12-15T19:32:27.767Z,-6.35
2022-12-15T19:34:58.508Z,-6.37
2022-12-15T19:37:31.898Z,-6.39
2022-12-15T19:40:03.220Z,-6.44
2022-12-15T19:42:36.955Z,-6.44
2022-12-15T19:45:17.841Z,-6.45
2022-12-15T19:47:46.827Z,-6.60
2022-12-15T19:50:17.432Z,-6.52
2022-12-15T19:52:52.609Z,-6.62
2022-12-15T19:55:29.043Z,-6.52
2022-12-15T19:57:58.524Z,-6.49
2022-12-15T20:00:29.065Z,-6.51
2022-12-15T20:02:57.831Z,-6.56
2022-12-15T20:05:26.729Z,-6.59
2022-12-15T20:07:58.391Z,-6.62
2022-12-15T20:10:32.198Z,-6.83
2022-12-15T20:13:03.295Z,-6.58
2022-12-15T20:15:34.908Z,-6.80
2022-12-15T20:18:03.571Z,-6.54
2022-12-15T20:20:32.532Z,-6.49
2022-12-15T20:23:08.613Z,-6.56
2022-12-15T20:25:38.447Z,-7.44
2022-12-15T20:28:14.663Z,-6.71
2022-12-15T20:30:46.010Z,-6.72
2022-12-15T20:33:15.127Z,-6.92
2022-12-15T20:35:46.151Z,-6.68
2022-12-15T20:38:22.505Z,-6.80
2022-12-15T20:40:51.572Z,-6.83
2022-12-15T20:43:22.457Z,-6.76
2022-12-15T20:46:04.177Z,-6.78
2022-12-15T20:48:36.572Z,-6.63
2022-12-15T20:51:09.840Z,-6.65
2022-12-15T20:53:39.317Z,-6.71
2022-12-15T20:56:09.648Z,-7.24
2022-12-15T20:58:41.301Z,-6.87
2022-12-15T21:01:20.500Z,-7.44
2022-12-15T21:03:51.954Z,-6.99
2022-12-15T21:06:20.876Z,-7.14
2022-12-15T21:08:49.389Z,-7.09
2022-12-15T21:11:21.832Z,-7.11
2022-12-15T21:13:52.351Z,-7.05
2022-12-15T21:16:26.086Z,-7.75
2022-12-15T21:21:49.302Z,-7.28
2022-12-15T21:24:25.193Z,-7.45
2022-12-15T21:26:55.005Z,-7.35
2022-12-15T21:29:26.403Z,-7.85
2022-12-15T21:31:56.262Z,-7.42
2022-12-15T21:34:24.916Z,-7.47
2022-12-15T21:36:55.529Z,-7.42
2022-12-15T21:39:29.806Z,-7.27
2022-12-15T21:42:01.025Z,-7.26
2022-12-15T21:44:29.479Z,-7.46
2022-12-15T21:46:59.229Z,-7.09
2022-12-15T21:49:27.454Z,-7.09
2022-12-15T21:51:59.885Z,-7.12
2022-12-15T21:54:32.440Z,-7.58
2022-12-15T21:57:02.690Z,-7.45
2022-12-15T21:59:33.819Z,-7.22
2022-12-15T22:02:23.899Z,-7.48
2022-12-15T22:04:52.980Z,-7.24
2022-12-15T22:07:23.569Z,-7.18
2022-12-15T22:09:51.901Z,-7.28
2022-12-15T22:12:24.671Z,-7.28
2022-12-15T22:14:53.144Z,-7.25
2022-12-15T22:17:24.486Z,-7.30
2022-12-15T22:19:53.080Z,-7.22
2022-12-15T22:22:21.684Z,-7.28
2022-12-15T22:24:49.944Z,-7.13
2022-12-15T22:27:22.502Z,-7.11
2022-12-15T22:29:51.429Z,-7.14
2022-12-15T22:32:19.676Z,-7.26
2022-12-15T22:34:49.367Z,-7.37
2022-12-15T22:37:17.623Z,-8.02
2022-12-15T22:39:45.941Z,-7.48
2022-12-15T22:42:18.006Z,-8.15
2022-12-15T22:44:47.113Z,-7.53
2022-12-15T22:47:15.419Z,-7.54
2022-12-15T22:49:44.111Z,-7.59
2022-12-15T22:52:19.261Z,-7.71
2022-12-15T22:54:48.385Z,-8.01
2022-12-15T22:57:24.131Z,-7.67
2022-12-15T23:00:00.861Z,-7.67
2022-12-15T23:02:33.736Z,-7.73
2022-12-15T23:05:02.908Z,-7.76
2022-12-15T23:07:33.995Z,-8.49
2022-12-15T23:10:19.961Z,-7.81
2022-12-15T23:12:48.608Z,-7.79
2022-12-15T23:15:34.477Z,-7.77
2022-12-15T23:18:02.767Z,-7.78
2022-12-15T23:20:31.168Z,-7.83
2022-12-15T23:23:00.878Z,-7.80
2022-12-15T23:25:29.359Z,-7.82
2022-12-15T23:27:57.793Z,-7.75
2022-12-15T23:30:26.276Z,-7.77
2022-12-15T23:32:55.352Z,-8.29
2022-12-15T23:35:24.010Z,-8.10
2022-12-15T23:37:52.342Z,-7.83
2022-12-15T23:40:22.567Z,-7.83
2022-12-15T23:42:52.192Z,-7.89
2022-12-15T23:45:21.608Z,-7.92
2022-12-15T23:47:49.885Z,-7.97
2022-12-15T23:50:19.120Z,-8.13
2022-12-15T23:52:51.971Z,-7.94
2022-12-15T23:55:24.373Z,-7.96
2022-12-15T23:57:52.710Z,-8.53
